Salida, CO (81201)

10:03 AM MDT on June 21, 2018 (GMT -0600)
CR 141 | | Change Station
Active Advisory: Fire Weather Watch

Elev 7195 ft 38.54 °N, 106.02 °W | Updated 1 second ago

Clear
Clear
69.8 °F
Feels Like 69.8 °F
N
2
Wind Variable Wind from WNW
Gusts 4.0 mph

Today
High -- | Low -- °F
--% Chance of Precip.
Yesterday
High -- | Low -- °F
Precip. -- in
Pressure 30.40 in
Visibility 10.0 miles
Clouds Clear
Dew Point 43 °F
Humidity 38%
Rainfall 0.00 in
Snow Depth Not available.
5:40 AM 8:31 PM
Waxing Gibbous, 63% visible
METAR KANK 211555Z AUTO 15003KT 10SM CLR 19/05 A3040 RMK AO1 T01930045
Pressure 30.40 in
Visibility 10.0 miles
Clouds Clear
Dew Point 43 °F
Humidity 38%
Rainfall 0.00 in
Snow Depth Not available.
5:40 AM 8:31 PM
Waxing Gibbous, 63% visible
METAR KANK 211555Z AUTO 15003KT 10SM CLR 19/05 A3040 RMK AO1 T01930045

Get Your Daily Forecast Email!

Thanks for signing up!

Be on the lookout for a verification email in your inbox.

You'll start receiving severe weather alerts in your inbox..

×

10-Day Weather Forecast

Almanac

Astronomy

Jun. 21, 2018 Rise Set
Actual Time
Civil Twilight
Nautical Twilight
Astronomical Twilight
Moon
Length of Visible Light
Length of Day
Tomorrow will be .
, % of the Moon is Illuminated

Today's Extremes

State Highs State Lows

Community

WunderPhotos

Category 6

Welcome to Category 6. This is the collective home for Weather Underground's featured writeups by Dr. Jeff Masters (right), Bob Henson (left), Chris Burt, and other regular contributors.

Nearby

Air Quality

  Air Quality AQ Index Pollutant
Not available.

Snow Depth

Station Depth Elevation

Earthquake Activity

City Distance Mag. Time & Date
Minimum magnitude displayed is 2.5.

Coastal Water Temperatures

Place Temperature

Stations

Nearby Weather Stations

Station Location Temp. Windchill Dew Point Humidity Wind Precip. Elev Updated Type
                   

Watches & Warnings

Fire Weather Watch
Issued: 3:48 AM MDT Jun. 21, 2018 – National Weather Service

... Fire Weather Watch remains in effect from Friday afternoon
through Friday evening for gusty winds, low relative humidity,
and high Haines indices for fire weather zones 220... 222... 223...
224 and 225...

* affected area... fire weather zones 220... 222... 223... 224 and
225.

* Winds... west 15 to 25 mph with gusts up to 45 mph.

* Relative humidity... as low as 8 percent.

* Impacts... conditions favorable for the rapid growth and spread
of fires will be possible.

* Haines... 6.

Precautionary/preparedness actions...

A Fire Weather Watch means that critical fire weather conditions
are forecast to occur. Listen for later forecasts and possible
red flag warnings.